createdAt,value
2023-05-02T00:04:27.382Z,1.52
2023-05-02T00:09:30.282Z,1.58
2023-05-02T00:14:33.252Z,1.75
2023-05-02T00:19:40.255Z,1.60
2023-05-02T00:24:42.898Z,1.65
2023-05-02T00:29:45.870Z,1.98
2023-05-02T00:34:48.637Z,1.95
2023-05-02T00:39:51.789Z,1.83
2023-05-02T00:44:54.502Z,1.80
2023-05-02T00:49:58.025Z,1.60
2023-05-02T00:55:01.965Z,1.90
2023-05-02T01:00:07.579Z,1.33
2023-05-02T01:05:17.595Z,1.88
2023-05-02T01:10:48.976Z,1.75
2023-05-02T01:15:54.362Z,1.80
2023-05-02T01:21:04.653Z,1.67
2023-05-02T01:26:32.889Z,1.70
2023-05-02T01:31:44.496Z,1.45
2023-05-02T01:36:50.616Z,1.80
2023-05-02T01:41:56.950Z,1.40
2023-05-02T01:47:03.484Z,1.40
2023-05-02T01:52:11.740Z,1.77
2023-05-02T01:57:17.973Z,1.83
2023-05-02T02:02:22.854Z,2.50
2023-05-02T02:07:25.586Z,11.65
2023-05-02T02:12:42.457Z,39.55
2023-05-02T02:17:58.569Z,46.35
2023-05-02T02:23:05.401Z,52.63
2023-05-02T02:28:08.181Z,12.90
2023-05-02T02:33:10.979Z,19.30
2023-05-02T02:38:22.441Z,6.72
2023-05-02T02:43:36.322Z,2.30
2023-05-02T02:48:58.634Z,2.05
2023-05-02T02:54:22.927Z,1.83
2023-05-02T02:59:41.485Z,1.20
2023-05-02T03:04:47.114Z,1.20
2023-05-02T03:09:49.854Z,1.40
2023-05-02T03:15:39.027Z,1.55
2023-05-02T03:20:42.197Z,1.40
2023-05-02T03:25:45.807Z,1.42
2023-05-02T03:30:54.752Z,1.60
2023-05-02T03:35:57.997Z,1.40
2023-05-02T03:41:01.066Z,1.38
2023-05-02T03:46:09.433Z,1.30
2023-05-02T03:51:15.421Z,1.00
2023-05-02T03:56:21.079Z,1.33
2023-05-02T04:01:33.993Z,1.25
2023-05-02T04:06:38.563Z,1.40
2023-05-02T04:11:43.573Z,1.35
2023-05-02T04:16:50.398Z,1.23
2023-05-02T04:21:58.303Z,1.10
2023-05-02T04:27:01.758Z,1.33
2023-05-02T04:32:04.777Z,1.40
2023-05-02T04:37:08.303Z,1.30
2023-05-02T04:42:11.844Z,1.10
2023-05-02T04:47:26.478Z,1.30
2023-05-02T04:52:30.490Z,1.20
2023-05-02T04:57:33.308Z,1.65
2023-05-02T05:02:37.629Z,1.10
2023-05-02T05:07:41.078Z,1.17
2023-05-02T05:12:44.427Z,0.93
2023-05-02T05:17:47.367Z,1.05
2023-05-02T05:22:50.538Z,1.40
2023-05-02T05:27:58.031Z,0.95
2023-05-02T05:33:01.716Z,1.17
2023-05-02T05:38:04.566Z,1.00
2023-05-02T05:43:10.464Z,1.00
2023-05-02T05:48:15.154Z,0.70
2023-05-02T05:53:21.735Z,0.90
2023-05-02T05:58:26.219Z,1.08
2023-05-02T06:03:32.195Z,0.60
2023-05-02T06:08:36.064Z,0.60
2023-05-02T06:13:40.508Z,0.80
2023-05-02T06:18:44.880Z,0.57
2023-05-02T06:23:49.794Z,0.68
2023-05-02T06:28:52.495Z,0.32
2023-05-02T06:33:55.705Z,1.00
2023-05-02T06:38:58.462Z,0.80
2023-05-02T06:44:01.150Z,0.70
2023-05-02T06:49:04.022Z,0.60
2023-05-02T06:54:06.709Z,0.60
2023-05-02T06:59:09.369Z,0.80
2023-05-02T07:04:12.241Z,0.60
2023-05-02T07:09:14.886Z,0.95
2023-05-02T07:14:17.604Z,1.00
2023-05-02T07:19:46.932Z,1.27
2023-05-02T07:24:56.943Z,0.70
2023-05-02T07:29:59.867Z,0.73
2023-05-02T07:35:02.758Z,0.50
2023-05-02T07:40:08.031Z,0.65
2023-05-02T07:45:11.101Z,0.60
2023-05-02T07:50:14.194Z,0.40
2023-05-02T07:55:17.047Z,1.13
2023-05-02T08:00:20.053Z,0.40
2023-05-02T08:05:23.004Z,1.73
2023-05-02T08:10:25.800Z,2.17
2023-05-02T08:15:28.470Z,0.75
2023-05-02T08:20:31.231Z,0.60
2023-05-02T08:25:33.830Z,0.70
2023-05-02T08:30:36.423Z,0.50
2023-05-02T08:35:39.210Z,0.50
2023-05-02T08:40:43.218Z,0.70
2023-05-02T08:45:46.184Z,0.80
2023-05-02T08:50:50.086Z,0.50
2023-05-02T08:55:53.652Z,0.85
2023-05-02T09:01:01.002Z,0.85
2023-05-02T09:06:14.272Z,0.85
2023-05-02T09:11:17.562Z,1.30
2023-05-02T09:16:25.797Z,0.80
2023-05-02T09:21:41.750Z,0.90
2023-05-02T09:26:58.043Z,1.00
2023-05-02T09:32:00.732Z,0.80
2023-05-02T09:37:05.576Z,0.90
2023-05-02T09:42:08.168Z,0.90
2023-05-02T09:47:11.034Z,1.08
2023-05-02T09:52:18.346Z,1.08
2023-05-02T09:57:21.062Z,0.70
2023-05-02T10:02:24.969Z,0.90
2023-05-02T10:07:28.294Z,1.40
2023-05-02T10:12:32.972Z,1.00
2023-05-02T10:17:43.664Z,0.70
2023-05-02T10:22:50.064Z,3.60
2023-05-02T10:27:53.459Z,1.10
2023-05-02T10:33:00.269Z,1.00
2023-05-02T10:38:03.901Z,0.70
2023-05-02T10:43:07.214Z,0.88
2023-05-02T10:48:20.559Z,1.45
2023-05-02T10:53:36.972Z,1.15
2023-05-02T10:58:40.661Z,0.90
2023-05-02T11:03:57.960Z,0.90
2023-05-02T11:09:18.923Z,1.02
2023-05-02T11:14:30.815Z,0.90
2023-05-02T11:19:56.266Z,1.00
2023-05-02T11:24:59.190Z,1.25
2023-05-02T11:30:06.933Z,1.08
2023-05-02T11:35:24.697Z,1.40
2023-05-02T11:40:28.398Z,0.70
2023-05-02T11:45:39.275Z,0.88
2023-05-02T11:50:50.152Z,1.03
2023-05-02T11:55:55.666Z,1.20
2023-05-02T12:00:59.426Z,1.00
2023-05-02T12:06:28.932Z,1.10
2023-05-02T12:11:32.949Z,0.90
2023-05-02T12:16:36.348Z,0.90
2023-05-02T12:21:39.031Z,1.15
2023-05-02T12:26:41.718Z,1.20
2023-05-02T12:31:53.343Z,1.17
2023-05-02T12:41:58.633Z,1.13
2023-05-02T12:47:01.489Z,1.00
2023-05-02T12:52:04.611Z,1.00
2023-05-02T12:57:08.311Z,1.20
2023-05-02T13:02:11.269Z,1.33
2023-05-02T13:07:14.127Z,1.38
2023-05-02T13:12:16.876Z,1.20
2023-05-02T13:17:19.708Z,1.20
2023-05-02T13:22:22.469Z,1.27
2023-05-02T13:27:25.557Z,1.48
2023-05-02T13:32:29.134Z,1.20
2023-05-02T13:37:31.772Z,1.02
2023-05-02T13:42:35.035Z,1.00
2023-05-02T13:47:39.283Z,1.10
2023-05-02T13:52:42.420Z,1.10
2023-05-02T13:57:45.088Z,1.40
2023-05-02T14:02:48.753Z,0.80
2023-05-02T14:07:51.663Z,1.30
2023-05-02T14:12:54.462Z,1.00
2023-05-02T14:17:57.183Z,1.23
2023-05-02T14:22:59.874Z,0.73
2023-05-02T14:28:03.010Z,1.20
2023-05-02T14:33:05.670Z,1.10
2023-05-02T14:38:08.285Z,1.52
2023-05-02T14:43:14.547Z,1.35
2023-05-02T14:48:17.672Z,0.93
2023-05-02T14:53:21.472Z,1.23
2023-05-02T14:58:24.263Z,0.90
2023-05-02T15:03:27.333Z,1.00
2023-05-02T15:08:30.389Z,1.10
2023-05-02T15:13:32.994Z,1.15
2023-05-02T15:18:35.672Z,1.10
2023-05-02T15:23:38.284Z,1.02
2023-05-02T15:28:40.944Z,1.00
2023-05-02T15:33:43.632Z,1.20
2023-05-02T15:38:46.330Z,1.30
2023-05-02T15:43:48.994Z,1.50
2023-05-02T15:48:51.969Z,1.35
2023-05-02T15:53:54.605Z,1.60
2023-05-02T15:58:57.335Z,1.27
2023-05-02T16:03:59.982Z,1.52
2023-05-02T16:09:06.731Z,1.20
2023-05-02T16:14:09.780Z,1.27
2023-05-02T16:19:13.705Z,1.55
2023-05-02T16:24:19.448Z,1.50
2023-05-02T16:29:22.074Z,1.40
2023-05-02T16:34:24.702Z,1.50
2023-05-02T16:39:27.421Z,1.70
2023-05-02T16:44:30.624Z,1.50
2023-05-02T16:49:33.675Z,1.65
2023-05-02T16:54:36.517Z,1.25
2023-05-02T16:59:39.301Z,1.40
2023-05-02T17:04:42.348Z,1.63
2023-05-02T17:09:45.314Z,1.63
2023-05-02T17:14:48.332Z,2.28
2023-05-02T17:19:51.565Z,2.05
2023-05-02T17:24:54.936Z,1.70
2023-05-02T17:29:58.041Z,1.88
2023-05-02T17:35:01.003Z,2.10
2023-05-02T17:40:05.696Z,2.83
2023-05-02T17:45:09.207Z,2.33
2023-05-02T17:50:12.133Z,3.05
2023-05-02T17:55:15.345Z,2.45
2023-05-02T18:00:19.999Z,2.80
2023-05-02T18:05:23.587Z,2.72
2023-05-02T18:10:26.359Z,2.33
2023-05-02T18:15:29.211Z,2.15
2023-05-02T18:20:31.831Z,2.60
2023-05-02T18:25:35.368Z,2.35
2023-05-02T18:30:38.594Z,2.40
2023-05-02T18:35:49.186Z,2.30
2023-05-02T18:40:52.106Z,2.30
2023-05-02T18:45:54.779Z,2.42
2023-05-02T18:50:57.456Z,2.47
2023-05-02T18:56:00.740Z,2.90
2023-05-02T19:01:12.305Z,2.30
2023-05-02T19:06:17.722Z,2.22
2023-05-02T19:11:21.477Z,2.15
2023-05-02T19:16:26.731Z,2.00
2023-05-02T19:21:29.461Z,1.80
2023-05-02T19:26:32.260Z,1.80
2023-05-02T19:31:35.103Z,2.03
2023-05-02T19:36:37.738Z,1.83
2023-05-02T19:41:42.619Z,1.92
2023-05-02T19:46:45.321Z,1.75
2023-05-02T19:51:47.968Z,2.10
2023-05-02T19:56:50.680Z,2.83
2023-05-02T20:01:53.502Z,1.90
2023-05-02T20:06:56.072Z,2.10
2023-05-02T20:11:58.798Z,1.88
2023-05-02T20:17:02.257Z,1.75
2023-05-02T20:22:05.295Z,1.75
2023-05-02T20:27:07.857Z,2.00
2023-05-02T20:32:10.640Z,1.60
2023-05-02T20:37:13.500Z,1.92
2023-05-02T20:42:23.257Z,1.63
2023-05-02T20:47:27.322Z,1.52
2023-05-02T20:52:29.991Z,1.70
2023-05-02T20:57:32.645Z,1.73
2023-05-02T21:02:35.957Z,2.15
2023-05-02T21:07:40.691Z,2.10
2023-05-02T21:12:43.365Z,2.00
2023-05-02T21:17:46.129Z,2.33
2023-05-02T21:22:48.909Z,1.98
2023-05-02T21:27:52.787Z,2.05
2023-05-02T21:32:56.080Z,2.10
2023-05-02T21:37:58.809Z,2.00
2023-05-02T21:43:01.504Z,2.45
2023-05-02T21:48:04.749Z,2.20
2023-05-02T21:53:07.957Z,2.40
2023-05-02T21:58:11.666Z,2.33
2023-05-02T22:03:14.393Z,2.25
2023-05-02T22:08:17.599Z,2.47
2023-05-02T22:13:20.273Z,1.98
2023-05-02T22:18:22.932Z,2.30
2023-05-02T22:23:25.833Z,2.65
2023-05-02T22:28:28.762Z,2.25
2023-05-02T22:33:31.450Z,2.40
2023-05-02T22:38:34.182Z,2.30
2023-05-02T22:43:36.881Z,2.33
2023-05-02T22:48:39.572Z,2.20
2023-05-02T22:53:42.653Z,2.30
2023-05-02T22:58:45.321Z,2.40
2023-05-02T23:03:49.208Z,2.13
2023-05-02T23:08:52.261Z,2.40
2023-05-02T23:13:54.867Z,2.25
2023-05-02T23:18:57.551Z,2.10
2023-05-02T23:24:00.255Z,2.50
2023-05-02T23:29:03.213Z,2.10
2023-05-02T23:34:06.978Z,2.20
2023-05-02T23:39:10.087Z,2.17
2023-05-02T23:44:12.803Z,2.53
2023-05-02T23:49:15.529Z,2.05
2023-05-02T23:54:18.191Z,1.98
2023-05-02T23:59:20.974Z,2.53
